Time,TemperatureF,DewpointF,PressureIn,WindDirection,WindDirectionDegrees,WindSpeedMPH,WindSpeedGustMPH,Humidity,HourlyPrecipIn,Conditions,Clouds,dailyrainin,SoftwareType,DateUTC
2013-01-02 00:03:00,15.0,10.0,-100.00,NW,305,3.0,4.0,80,0.00,,,-99.99,,2013-01-02 05:03:00,
2013-01-02 00:12:00,15.0,10.0,-100.00,WNW,295,3.0,5.0,82,0.00,,,-99.99,,2013-01-02 05:12:00,
2013-01-02 00:22:00,15.0,10.0,-100.00,NW,305,4.0,6.0,81,0.00,,,-99.99,,2013-01-02 05:22:00,
2013-01-02 00:33:00,15.0,10.0,-100.00,NW,310,3.0,4.0,83,0.00,,,-99.99,,2013-01-02 05:33:00,
2013-01-02 00:42:00,14.0,10.0,-100.00,WNW,300,3.0,4.0,83,0.00,,,-99.99,,2013-01-02 05:42:00,
2013-01-02 00:52:00,14.0,10.0,-100.00,NW,305,2.0,4.0,83,0.00,,,-99.99,,2013-01-02 05:52:00,
2013-01-02 01:02:00,15.0,11.0,-100.00,WNW,290,2.0,4.0,83,0.00,,,-99.99,,2013-01-02 06:02:00,
2013-01-02 01:12:00,15.0,10.0,-100.00,West,270,2.0,4.0,81,0.00,,,-99.99,,2013-01-02 06:12:00,
2013-01-02 01:22:00,15.0,10.0,-100.00,WNW,285,4.0,6.0,80,0.00,,,-99.99,,2013-01-02 06:22:00,
2013-01-02 01:32:00,14.0,9.0,-100.00,WNW,300,4.0,6.0,81,0.00,,,-99.99,,2013-01-02 06:32:00,
2013-01-02 01:42:00,14.0,10.0,-100.00,NW,305,2.0,6.0,82,0.00,,,-99.99,,2013-01-02 06:42:00,
2013-01-02 01:52:00,14.0,9.0,-100.00,WNW,290,2.0,4.0,82,0.00,,,-99.99,,2013-01-02 06:52:00,
2013-01-02 02:02:00,15.0,10.0,-100.00,WNW,300,3.0,6.0,81,0.00,,,-99.99,,2013-01-02 07:02:00,
2013-01-02 02:12:00,12.0,7.0,-100.00,South,190,2.0,5.0,79,0.00,,,-99.99,,2013-01-02 07:12:00,
2013-01-02 02:22:00,10.0,7.0,-100.00,South,180,1.0,3.0,86,0.00,,,-99.99,,2013-01-02 07:22:00,
2013-01-02 02:32:00,11.0,8.0,-100.00,SSE,150,0.0,1.0,88,0.00,,,-99.99,,2013-01-02 07:32:00,
2013-01-02 02:42:00,12.0,9.0,-100.00,South,185,0.0,1.0,88,0.00,,,-99.99,,2013-01-02 07:42:00,
2013-01-02 02:52:00,12.0,9.0,-100.00,South,185,0.0,1.0,88,0.00,,,-99.99,,2013-01-02 07:52:00,
2013-01-02 03:02:00,12.0,9.0,-100.00,SSW,205,0.0,1.0,88,0.00,,,-99.99,,2013-01-02 08:02:00,
2013-01-02 03:12:00,12.0,9.0,-100.00,South,185,1.0,2.0,87,0.00,,,-99.99,,2013-01-02 08:12:00,
2013-01-02 03:22:00,12.0,9.0,-100.00,South,190,2.0,2.0,88,0.00,,,-99.99,,2013-01-02 08:22:00,
2013-01-02 03:32:00,12.0,9.0,-100.00,South,190,2.0,2.0,88,0.00,,,-99.99,,2013-01-02 08:32:00,
2013-01-02 03:42:00,12.0,9.0,-100.00,SW,220,1.0,2.0,87,0.00,,,-99.99,,2013-01-02 08:42:00,
2013-01-02 03:52:00,12.0,9.0,-100.00,SW,220,1.0,2.0,87,0.00,,,-99.99,,2013-01-02 08:52:00,
2013-01-02 04:02:00,11.0,9.0,-100.00,SSW,195,1.0,2.0,88,0.00,,,-99.99,,2013-01-02 09:02:00,
2013-01-02 04:12:00,11.0,9.0,-100.00,SSW,195,1.0,2.0,88,0.00,,,-99.99,,2013-01-02 09:12:00,
2013-01-02 04:22:00,11.0,9.0,-100.00,SSW,195,1.0,2.0,88,0.00,,,-99.99,,2013-01-02 09:22:00,
2013-01-02 04:32:00,11.0,9.0,-100.00,SSW,195,1.0,2.0,88,0.00,,,-99.99,,2013-01-02 09:32:00,
2013-01-02 04:43:00,11.0,8.0,-100.00,SW,225,3.0,4.0,88,0.00,,,-99.99,,2013-01-02 09:43:00,
2013-01-02 04:53:00,13.0,10.0,-100.00,SW,230,5.0,6.0,86,0.00,,,-99.99,,2013-01-02 09:53:00,
2013-01-02 05:02:00,14.0,9.0,-100.00,WSW,240,6.0,7.0,83,0.00,,,-99.99,,2013-01-02 10:02:00,
2013-01-02 05:12:00,13.0,9.0,-100.00,WSW,240,5.0,8.0,82,0.00,,,-99.99,,2013-01-02 10:12:00,
2013-01-02 05:22:00,13.0,9.0,-100.00,WSW,240,6.0,7.0,84,0.00,,,-99.99,,2013-01-02 10:22:00,
2013-01-02 05:32:00,13.0,9.0,-100.00,WSW,240,6.0,7.0,85,0.00,,,-99.99,,2013-01-02 10:32:00,
2013-01-02 05:42:00,13.0,9.0,-100.00,West,260,2.0,7.0,83,0.00,,,-99.99,,2013-01-02 10:42:00,
2013-01-02 05:52:00,13.0,9.0,-100.00,WSW,240,4.0,7.0,84,0.00,,,-99.99,,2013-01-02 10:52:00,
2013-01-02 06:02:00,13.0,9.0,-100.00,WSW,240,4.0,7.0,84,0.00,,,-99.99,,2013-01-02 11:02:00,
2013-01-02 06:12:00,13.0,9.0,-100.00,WSW,240,6.0,7.0,84,0.00,,,-99.99,,2013-01-02 11:12:00,
2013-01-02 06:22:00,13.0,9.0,-100.00,WSW,255,4.0,7.0,84,0.00,,,-99.99,,2013-01-02 11:22:00,
2013-01-02 06:33:00,12.0,9.0,-100.00,WSW,255,4.0,7.0,85,0.00,,,-99.99,,2013-01-02 11:33:00,
2013-01-02 06:42:00,13.0,9.0,-100.00,WSW,245,4.0,7.0,85,0.00,,,-99.99,,2013-01-02 11:42:00,
2013-01-02 06:52:00,13.0,9.0,-100.00,WSW,255,3.0,6.0,85,0.00,,,-99.99,,2013-01-02 11:52:00,
2013-01-02 07:03:00,13.0,9.0,-100.00,West,260,4.0,6.0,85,0.00,,,-99.99,,2013-01-02 12:03:00,
2013-01-02 07:12:00,13.0,9.0,-100.00,WSW,250,4.0,6.0,85,0.00,,,-99.99,,2013-01-02 12:12:00,
2013-01-02 07:22:00,13.0,9.0,-100.00,WSW,255,4.0,8.0,85,0.00,,,-99.99,,2013-01-02 12:22:00,
2013-01-02 07:33:00,13.0,9.0,-100.00,WSW,245,4.0,6.0,86,0.00,,,-99.99,,2013-01-02 12:33:00,
2013-01-02 07:42:00,12.0,9.0,-100.00,West,270,1.0,6.0,86,0.00,,,-99.99,,2013-01-02 12:42:00,
2013-01-02 07:53:00,12.0,9.0,-100.00,WNW,290,3.0,6.0,88,0.00,,,-99.99,,2013-01-02 12:53:00,
2013-01-02 08:02:00,12.0,9.0,-100.00,WNW,290,3.0,6.0,88,0.00,,,-99.99,,2013-01-02 13:02:00,
2013-01-02 08:12:00,13.0,10.0,-100.00,West,280,3.0,6.0,88,0.00,,,-99.99,,2013-01-02 13:12:00,
2013-01-02 08:22:00,13.0,10.0,-100.00,West,270,2.0,4.0,88,0.00,,,-99.99,,2013-01-02 13:22:00,
2013-01-02 08:33:00,13.0,10.0,-100.00,West,270,2.0,4.0,88,0.00,,,-99.99,,2013-01-02 13:33:00,
2013-01-02 08:43:00,10.0,7.0,-100.00,WSW,240,1.0,2.0,87,0.00,,,-99.99,,2013-01-02 13:43:00,
2013-01-02 08:52:00,11.0,9.0,-100.00,WSW,250,0.0,1.0,89,0.00,,,-99.99,,2013-01-02 13:52:00,
2013-01-02 09:02:00,11.0,8.0,-100.00,South,175,0.0,1.0,88,0.00,,,-99.99,,2013-01-02 14:02:00,
2013-01-02 09:12:00,12.0,10.0,-100.00,West,260,0.0,1.0,89,0.00,,,-99.99,,2013-01-02 14:12:00,
2013-01-02 09:22:00,12.0,9.0,-100.00,SSW,200,1.0,2.0,88,0.00,,,-99.99,,2013-01-02 14:22:00,
2013-01-02 09:33:00,11.0,8.0,-100.00,South,190,2.0,2.0,87,0.00,,,-99.99,,2013-01-02 14:33:00,
2013-01-02 09:43:00,11.0,8.0,-100.00,SSW,195,2.0,3.0,87,0.00,,,-99.99,,2013-01-02 14:43:00,
2013-01-02 09:53:00,12.0,9.0,-100.00,SSW,205,2.0,3.0,87,0.00,,,-99.99,,2013-01-02 14:53:00,
2013-01-02 10:03:00,12.0,9.0,-100.00,SW,215,2.0,3.0,87,0.00,,,-99.99,,2013-01-02 15:03:00,
2013-01-02 10:12:00,14.0,11.0,-100.00,SW,235,4.0,6.0,87,0.00,,,-99.99,,2013-01-02 15:12:00,
2013-01-02 10:22:00,15.0,11.0,-100.00,WSW,240,2.0,4.0,86,0.00,,,-99.99,,2013-01-02 15:22:00,
2013-01-02 10:33:00,15.0,11.0,-100.00,SW,230,2.0,4.0,83,0.00,,,-99.99,,2013-01-02 15:33:00,
2013-01-02 10:43:00,15.0,10.0,-100.00,SW,230,4.0,6.0,81,0.00,,,-99.99,,2013-01-02 15:43:00,
2013-01-02 10:53:00,17.0,12.0,-100.00,WSW,255,3.0,5.0,80,0.00,,,-99.99,,2013-01-02 15:53:00,
2013-01-02 11:03:00,17.0,11.0,-100.00,SW,235,5.0,6.0,78,0.00,,,-99.99,,2013-01-02 16:03:00,
2013-01-02 11:13:00,18.0,12.0,-100.00,WSW,245,4.0,7.0,77,0.00,,,-99.99,,2013-01-02 16:13:00,
2013-01-02 11:22:00,18.0,11.0,-100.00,SW,230,6.0,9.0,74,0.00,,,-99.99,,2013-01-02 16:22:00,
2013-01-02 11:33:00,19.0,11.0,-100.00,SW,225,6.0,9.0,74,0.00,,,-99.99,,2013-01-02 16:33:00,
2013-01-02 11:43:00,18.0,11.0,-100.00,SW,235,6.0,8.0,74,0.00,,,-99.99,,2013-01-02 16:43:00,
2013-01-02 11:53:00,19.0,12.0,-100.00,WSW,250,4.0,8.0,72,0.00,,,-99.99,,2013-01-02 16:53:00,
2013-01-02 12:03:00,20.0,12.0,-100.00,SW,235,4.0,8.0,71,0.00,,,-99.99,,2013-01-02 17:03:00,
2013-01-02 12:13:00,20.0,12.0,-100.00,WSW,255,3.0,7.0,70,0.00,,,-99.99,,2013-01-02 17:13:00,
2013-01-02 12:23:00,20.0,11.0,-100.00,WSW,255,6.0,11.0,67,0.00,,,-99.99,,2013-01-02 17:23:00,
2013-01-02 12:33:00,21.0,11.0,-100.00,WSW,255,6.0,8.0,66,0.00,,,-99.99,,2013-01-02 17:33:00,
2013-01-02 12:43:00,21.0,11.0,-100.00,WNW,290,6.0,10.0,65,0.00,,,-99.99,,2013-01-02 17:43:00,
2013-01-02 12:53:00,21.0,11.0,-100.00,WSW,250,4.0,8.0,65,0.00,,,-99.99,,2013-01-02 17:53:00,
2013-01-02 13:03:00,22.0,11.0,-100.00,West,260,4.0,8.0,62,0.00,,,-99.99,,2013-01-02 18:03:00,
2013-01-02 13:13:00,22.0,12.0,-100.00,WSW,245,4.0,9.0,63,0.00,,,-99.99,,2013-01-02 18:13:00,
2013-01-02 13:22:00,22.0,11.0,-100.00,SW,225,6.0,9.0,64,0.00,,,-99.99,,2013-01-02 18:22:00,
2013-01-02 13:33:00,22.0,11.0,-100.00,SW,225,6.0,9.0,63,0.00,,,-99.99,,2013-01-02 18:33:00,
2013-01-02 13:43:00,22.0,12.0,-100.00,SW,225,6.0,9.0,64,0.00,,,-99.99,,2013-01-02 18:43:00,
2013-01-02 13:53:00,23.0,12.0,-100.00,SW,235,5.0,9.0,62,0.00,,,-99.99,,2013-01-02 18:53:00,
2013-01-02 14:03:00,22.0,11.0,-100.00,SW,225,6.0,9.0,62,0.00,,,-99.99,,2013-01-02 19:03:00,
2013-01-02 14:12:00,22.0,11.0,-100.00,SW,235,6.0,9.0,62,0.00,,,-99.99,,2013-01-02 19:12:00,
2013-01-02 14:23:00,22.0,10.0,-100.00,WSW,245,4.0,8.0,60,0.00,,,-99.99,,2013-01-02 19:23:00,
2013-01-02 14:33:00,22.0,10.0,-100.00,SW,225,6.0,8.0,60,0.00,,,-99.99,,2013-01-02 19:33:00,
2013-01-02 14:43:00,22.0,10.0,-100.00,SW,225,6.0,7.0,60,0.00,,,-99.99,,2013-01-02 19:43:00,
2013-01-02 14:52:00,22.0,10.0,-100.00,SW,225,5.0,8.0,60,0.00,,,-99.99,,2013-01-02 19:52:00,
2013-01-02 15:03:00,22.0,10.0,-100.00,SW,235,5.0,7.0,59,0.00,,,-99.99,,2013-01-02 20:03:00,
2013-01-02 15:12:00,21.0,10.0,-100.00,SSW,210,4.0,7.0,60,0.00,,,-99.99,,2013-01-02 20:12:00,
2013-01-02 15:23:00,21.0,10.0,-100.00,SW,225,4.0,6.0,61,0.00,,,-99.99,,2013-01-02 20:23:00,
2013-01-02 15:33:00,21.0,9.0,-100.00,SW,220,6.0,9.0,59,0.00,,,-99.99,,2013-01-02 20:33:00,
2013-01-02 15:42:00,21.0,9.0,-100.00,SW,230,6.0,8.0,59,0.00,,,-99.99,,2013-01-02 20:42:00,
2013-01-02 15:53:00,21.0,9.0,-100.00,SW,225,4.0,8.0,60,0.00,,,-99.99,,2013-01-02 20:53:00,
2013-01-02 16:03:00,21.0,9.0,-100.00,SW,230,4.0,5.0,60,0.00,,,-99.99,,2013-01-02 21:03:00,
2013-01-02 16:13:00,20.0,9.0,-100.00,SW,235,5.0,6.0,60,0.00,,,-99.99,,2013-01-02 21:13:00,
2013-01-02 16:22:00,20.0,9.0,-100.00,WSW,240,4.0,7.0,61,0.00,,,-99.99,,2013-01-02 21:22:00,
2013-01-02 16:33:00,20.0,9.0,-100.00,SW,220,4.0,6.0,60,0.00,,,-99.99,,2013-01-02 21:33:00,
2013-01-02 16:43:00,20.0,9.0,-100.00,SW,230,5.0,6.0,61,0.00,,,-99.99,,2013-01-02 21:43:00,
2013-01-02 16:52:00,20.0,9.0,-100.00,SW,235,3.0,6.0,61,0.00,,,-99.99,,2013-01-02 21:52:00,
2013-01-02 17:03:00,20.0,9.0,-100.00,SW,235,3.0,6.0,61,0.00,,,-99.99,,2013-01-02 22:03:00,
2013-01-02 17:12:00,20.0,8.0,-100.00,West,260,2.0,5.0,60,0.00,,,-99.99,,2013-01-02 22:12:00,
2013-01-02 17:22:00,20.0,8.0,-100.00,WSW,245,1.0,4.0,59,0.00,,,-99.99,,2013-01-02 22:22:00,
2013-01-02 17:32:00,19.0,8.0,-100.00,WSW,250,2.0,3.0,60,0.00,,,-99.99,,2013-01-02 22:32:00,
2013-01-02 17:43:00,19.0,8.0,-100.00,SW,230,3.0,4.0,59,0.00,,,-99.99,,2013-01-02 22:43:00,
2013-01-02 17:52:00,19.0,7.0,-100.00,WSW,245,3.0,4.0,59,0.00,,,-99.99,,2013-01-02 22:52:00,
2013-01-02 18:03:00,19.0,7.0,-100.00,SW,235,1.0,4.0,59,0.00,,,-99.99,,2013-01-02 23:03:00,
2013-01-02 18:13:00,19.0,7.0,-100.00,SW,220,2.0,3.0,60,0.00,,,-99.99,,2013-01-02 23:13:00,
2013-01-02 18:23:00,19.0,7.0,-100.00,SW,225,1.0,2.0,61,0.00,,,-99.99,,2013-01-02 23:23:00,
2013-01-02 18:33:00,18.0,7.0,-100.00,SW,220,1.0,2.0,61,0.00,,,-99.99,,2013-01-02 23:33:00,
2013-01-02 18:42:00,19.0,8.0,-100.00,SW,220,2.0,3.0,62,0.00,,,-99.99,,2013-01-02 23:42:00,
2013-01-02 18:52:00,18.0,8.0,-100.00,SW,230,2.0,2.0,62,0.00,,,-99.99,,2013-01-02 23:52:00,
2013-01-02 19:02:00,18.0,8.0,-100.00,SW,235,2.0,3.0,62,0.00,,,-99.99,,2013-01-03 00:02:00,
2013-01-02 19:12:00,18.0,8.0,-100.00,WSW,240,2.0,3.0,63,0.00,,,-99.99,,2013-01-03 00:12:00,
2013-01-02 19:22:00,18.0,8.0,-100.00,SW,235,2.0,3.0,63,0.00,,,-99.99,,2013-01-03 00:22:00,
2013-01-02 19:38:00,18.0,8.0,-100.00,West,260,2.0,4.0,64,0.00,,,-99.99,,2013-01-03 00:38:00,
2013-01-02 19:52:00,18.0,8.0,-100.00,WSW,255,3.0,4.0,64,0.00,,,-99.99,,2013-01-03 00:52:00,
2013-01-02 20:02:00,18.0,8.0,-100.00,West,275,2.0,4.0,65,0.00,,,-99.99,,2013-01-03 01:02:00,
2013-01-02 20:12:00,18.0,8.0,-100.00,West,270,2.0,4.0,66,0.00,,,-99.99,,2013-01-03 01:12:00,
2013-01-02 20:22:00,18.0,9.0,-100.00,West,270,1.0,3.0,67,0.00,,,-99.99,,2013-01-03 01:22:00,
2013-01-02 20:32:00,18.0,9.0,-100.00,West,275,2.0,3.0,67,0.00,,,-99.99,,2013-01-03 01:32:00,
2013-01-02 20:42:00,18.0,9.0,-100.00,WSW,255,2.0,3.0,69,0.00,,,-99.99,,2013-01-03 01:42:00,
2013-01-02 20:52:00,17.0,8.0,-100.00,SW,230,2.0,4.0,69,0.00,,,-99.99,,2013-01-03 01:52:00,
2013-01-02 21:02:00,17.0,8.0,-100.00,SW,230,2.0,4.0,69,0.00,,,-99.99,,2013-01-03 02:02:00,
2013-01-02 21:12:00,17.0,9.0,-100.00,SW,225,2.0,3.0,71,0.00,,,-99.99,,2013-01-03 02:12:00,
2013-01-02 21:22:00,17.0,9.0,-100.00,SW,235,3.0,4.0,71,0.00,,,-99.99,,2013-01-03 02:22:00,
2013-01-02 21:33:00,17.0,10.0,-100.00,WSW,245,3.0,4.0,72,0.00,,,-99.99,,2013-01-03 02:33:00,
2013-01-02 21:43:00,17.0,10.0,-100.00,WSW,245,3.0,4.0,72,0.00,,,-99.99,,2013-01-03 02:43:00,
2013-01-02 21:52:00,17.0,10.0,-100.00,WSW,245,3.0,4.0,72,0.00,,,-99.99,,2013-01-03 02:52:00,
2013-01-02 22:02:00,16.0,10.0,-100.00,WSW,245,4.0,6.0,74,0.00,,,-99.99,,2013-01-03 03:02:00,
2013-01-02 22:12:00,16.0,9.0,-100.00,West,260,3.0,6.0,74,0.00,,,-99.99,,2013-01-03 03:12:00,
2013-01-02 22:22:00,16.0,9.0,-100.00,WSW,250,3.0,5.0,75,0.00,,,-99.99,,2013-01-03 03:22:00,
2013-01-02 22:46:00,15.0,9.0,-100.00,SW,235,3.0,4.0,75,0.00,,,-99.99,,2013-01-03 03:46:00,
2013-01-02 22:52:00,15.0,9.0,-100.00,WSW,255,1.0,4.0,75,0.00,,,-99.99,,2013-01-03 03:52:00,
2013-01-02 23:02:00,15.0,9.0,-100.00,SW,230,1.0,3.0,75,0.00,,,-99.99,,2013-01-03 04:02:00,
2013-01-02 23:12:00,14.0,9.0,-100.00,WSW,245,1.0,2.0,78,0.00,,,-99.99,,2013-01-03 04:12:00,
2013-01-02 23:22:00,15.0,9.0,-100.00,West,260,1.0,2.0,76,0.00,,,-99.99,,2013-01-03 04:22:00,
2013-01-02 23:32:00,15.0,9.0,-100.00,West,260,1.0,1.0,76,0.00,,,-99.99,,2013-01-03 04:32:00,
2013-01-02 23:42:00,14.0,8.0,-100.00,SW,225,0.0,1.0,77,0.00,,,-99.99,,2013-01-03 04:42:00,
2013-01-02 23:52:00,13.0,8.0,-100.00,SW,225,0.0,1.0,80,0.00,,,-99.99,,2013-01-03 04:52:00,